createdAt,value
2018-12-26T00:00:36.999Z,2.94
2018-12-26T00:01:37.045Z,2.90
2018-12-26T00:02:36.997Z,2.86
2018-12-26T00:03:36.997Z,2.84
2018-12-26T00:04:36.998Z,2.86
2018-12-26T00:05:36.999Z,2.90
2018-12-26T00:06:36.994Z,2.95
2018-12-26T00:07:37.006Z,2.84
2018-12-26T00:08:36.996Z,2.80
2018-12-26T00:09:37.000Z,2.84
2018-12-26T00:10:37.001Z,2.79
2018-12-26T00:11:37.012Z,2.80
2018-12-26T00:12:37.000Z,2.89
2018-12-26T00:13:37.008Z,2.71
2018-12-26T00:14:36.997Z,2.74
2018-12-26T00:15:37.005Z,2.77
2018-12-26T00:16:37.002Z,2.73
2018-12-26T00:17:37.003Z,2.71
2018-12-26T00:18:37.023Z,2.83
2018-12-26T00:19:37.061Z,2.74
2018-12-26T00:20:37.003Z,2.80
2018-12-26T00:21:37.008Z,2.81
2018-12-26T00:22:37.003Z,2.77
2018-12-26T00:23:37.007Z,2.87
2018-12-26T00:24:37.007Z,2.86
2018-12-26T00:25:37.007Z,2.83
2018-12-26T00:26:37.065Z,2.84
2018-12-26T00:27:37.008Z,2.80
2018-12-26T00:28:37.012Z,2.83
2018-12-26T00:29:37.008Z,2.81
2018-12-26T00:30:37.015Z,2.84
2018-12-26T00:31:37.013Z,2.81
2018-12-26T00:32:37.012Z,2.81
2018-12-26T00:33:37.012Z,2.80
2018-12-26T00:34:37.014Z,2.76
2018-12-26T00:35:37.013Z,2.80
2018-12-26T00:36:37.013Z,2.81
2018-12-26T00:37:37.018Z,2.92
2018-12-26T00:38:37.016Z,2.92
2018-12-26T00:39:37.023Z,2.92
2018-12-26T00:40:37.017Z,2.95
2018-12-26T00:41:37.011Z,2.92
2018-12-26T00:42:37.028Z,2.97
2018-12-26T00:43:37.019Z,2.90
2018-12-26T00:44:37.016Z,2.90
2018-12-26T00:45:37.022Z,2.94
2018-12-26T00:46:37.021Z,2.98
2018-12-26T00:47:37.020Z,2.87
2018-12-26T00:48:37.021Z,2.99
2018-12-26T00:49:37.022Z,2.92
2018-12-26T00:50:37.026Z,2.98
2018-12-26T00:51:37.024Z,3.01
2018-12-26T00:52:37.029Z,2.98
2018-12-26T00:53:37.027Z,2.99
2018-12-26T00:54:37.024Z,2.98
2018-12-26T00:55:37.027Z,2.99
2018-12-26T00:56:37.047Z,3.01
2018-12-26T00:57:37.028Z,2.98
2018-12-26T00:58:37.029Z,2.92
2018-12-26T00:59:37.026Z,2.94
2018-12-26T01:00:37.028Z,2.97
2018-12-26T01:01:37.033Z,3.05
2018-12-26T01:02:37.031Z,3.08
2018-12-26T01:03:37.034Z,3.13
2018-12-26T01:04:37.035Z,3.10
2018-12-26T01:05:37.032Z,3.04
2018-12-26T01:06:37.031Z,3.05
2018-12-26T01:07:37.054Z,3.13
2018-12-26T01:08:37.042Z,3.02
2018-12-26T01:09:37.042Z,3.05
2018-12-26T01:10:37.038Z,3.12
2018-12-26T01:11:37.041Z,3.12
2018-12-26T01:12:37.044Z,3.15
2018-12-26T01:13:37.050Z,3.16
2018-12-26T01:14:37.048Z,3.17
2018-12-26T01:15:37.042Z,3.16
2018-12-26T01:16:37.043Z,3.15
2018-12-26T01:17:37.051Z,3.20
2018-12-26T01:18:37.042Z,3.25
2018-12-26T01:19:37.046Z,3.20
2018-12-26T01:20:37.047Z,3.17
2018-12-26T01:21:37.050Z,3.16
2018-12-26T01:22:37.045Z,3.19
2018-12-26T01:23:37.048Z,3.10
2018-12-26T01:24:37.045Z,3.16
2018-12-26T01:25:37.052Z,3.07
2018-12-26T01:26:37.053Z,3.10
2018-12-26T01:27:37.056Z,3.07
2018-12-26T01:28:37.053Z,3.01
2018-12-26T01:29:37.055Z,3.01
2018-12-26T01:30:37.057Z,3.04
2018-12-26T01:31:37.060Z,3.08
2018-12-26T01:32:37.059Z,3.07
2018-12-26T01:33:37.061Z,3.12
2018-12-26T01:34:37.067Z,3.10
2018-12-26T01:35:37.051Z,3.04
2018-12-26T01:36:37.059Z,3.13
2018-12-26T01:37:37.064Z,3.17
2018-12-26T01:38:37.059Z,3.19
2018-12-26T01:39:37.060Z,3.05
2018-12-26T01:40:37.064Z,3.07
2018-12-26T01:41:37.059Z,2.99
2018-12-26T01:42:37.071Z,2.99
2018-12-26T01:43:37.070Z,2.99
2018-12-26T01:44:37.069Z,3.02
2018-12-26T01:45:37.076Z,2.97
2018-12-26T01:46:37.068Z,2.95
2018-12-26T01:47:37.077Z,3.01
2018-12-26T01:48:37.070Z,2.98
2018-12-26T01:49:37.070Z,2.99
2018-12-26T01:50:37.073Z,2.99
2018-12-26T01:51:37.072Z,3.02
2018-12-26T01:52:37.074Z,3.04
2018-12-26T01:53:37.069Z,2.98
2018-12-26T01:54:37.073Z,2.98
2018-12-26T01:55:37.074Z,2.95
2018-12-26T01:56:37.076Z,2.98
2018-12-26T01:57:37.076Z,2.98
2018-12-26T01:58:37.079Z,3.02
2018-12-26T01:59:37.087Z,3.04
2018-12-26T02:00:37.080Z,3.07
2018-12-26T02:01:37.076Z,3.02
2018-12-26T02:02:37.079Z,3.01
2018-12-26T02:03:37.083Z,3.04
2018-12-26T02:04:37.088Z,3.08
2018-12-26T02:05:37.083Z,3.02
2018-12-26T02:06:37.085Z,3.05
2018-12-26T02:07:37.087Z,2.95
2018-12-26T02:08:37.084Z,2.97
2018-12-26T02:09:37.085Z,2.97
2018-12-26T02:10:37.085Z,2.99
2018-12-26T02:11:37.085Z,3.04
2018-12-26T02:12:37.089Z,2.98
2018-12-26T02:13:37.087Z,2.94
2018-12-26T02:14:37.090Z,2.99
2018-12-26T02:15:37.094Z,2.94
2018-12-26T02:16:37.099Z,2.99
2018-12-26T02:17:37.096Z,2.94
2018-12-26T02:18:37.091Z,2.95
2018-12-26T02:19:37.095Z,2.97
2018-12-26T02:20:37.100Z,2.95
2018-12-26T02:21:37.105Z,3.01
2018-12-26T02:22:37.098Z,2.99
2018-12-26T02:23:37.103Z,2.99
2018-12-26T02:24:37.099Z,2.92
2018-12-26T02:25:37.106Z,2.89
2018-12-26T02:26:37.098Z,2.90
2018-12-26T02:27:37.095Z,2.99
2018-12-26T02:28:37.101Z,2.92
2018-12-26T02:29:37.098Z,2.87
2018-12-26T02:30:37.104Z,2.92
2018-12-26T02:31:37.107Z,2.84
2018-12-26T02:32:37.103Z,2.92
2018-12-26T02:33:37.101Z,2.81
2018-12-26T02:34:37.108Z,2.86
2018-12-26T02:35:37.110Z,2.95
2018-12-26T02:36:37.115Z,2.98
2018-12-26T02:37:37.112Z,2.97
2018-12-26T02:38:37.121Z,2.99
2018-12-26T02:39:37.120Z,2.99
2018-12-26T02:40:37.110Z,3.01
2018-12-26T02:41:37.114Z,2.87
2018-12-26T02:42:37.109Z,2.99
2018-12-26T02:43:37.106Z,2.86
2018-12-26T02:44:37.109Z,2.89
2018-12-26T02:45:37.114Z,2.92
2018-12-26T02:46:37.114Z,2.86
2018-12-26T02:47:37.113Z,2.89
2018-12-26T02:48:37.127Z,2.87
2018-12-26T02:49:37.117Z,2.86
2018-12-26T02:50:37.114Z,2.87
2018-12-26T02:51:37.120Z,2.90
2018-12-26T02:52:37.120Z,2.83
2018-12-26T02:53:37.120Z,2.77
2018-12-26T02:54:37.121Z,2.86
2018-12-26T02:55:37.120Z,2.83
2018-12-26T02:56:46.190Z,2.86
2018-12-26T02:57:37.125Z,2.90
2018-12-26T02:58:37.122Z,2.86
2018-12-26T02:59:37.121Z,2.83
2018-12-26T03:00:37.124Z,2.81
2018-12-26T03:01:37.127Z,2.84
2018-12-26T03:02:37.125Z,2.83
2018-12-26T03:03:37.141Z,2.81
2018-12-26T03:04:37.129Z,2.86
2018-12-26T03:05:37.126Z,2.79
2018-12-26T03:06:37.130Z,2.69
2018-12-26T03:07:37.125Z,2.73
2018-12-26T03:08:37.137Z,2.81
2018-12-26T03:09:37.131Z,2.80
2018-12-26T03:10:37.137Z,2.81
2018-12-26T03:11:37.170Z,2.86
2018-12-26T03:12:37.132Z,2.86
2018-12-26T03:13:37.132Z,2.86
2018-12-26T03:14:37.130Z,2.89
2018-12-26T03:15:37.134Z,2.92
2018-12-26T03:16:37.144Z,2.87
2018-12-26T03:17:37.133Z,2.80
2018-12-26T03:18:37.137Z,2.84
2018-12-26T03:19:37.139Z,2.86
2018-12-26T03:20:37.141Z,2.86
2018-12-26T03:21:37.140Z,2.87
2018-12-26T03:22:37.141Z,2.92
2018-12-26T03:23:37.143Z,2.86
2018-12-26T03:24:37.141Z,2.89
2018-12-26T03:25:37.145Z,2.92
2018-12-26T03:26:37.143Z,2.80
2018-12-26T03:27:37.145Z,2.81
2018-12-26T03:28:37.137Z,2.81
2018-12-26T03:29:37.144Z,2.84
2018-12-26T03:30:37.146Z,2.71
2018-12-26T03:31:37.147Z,2.80
2018-12-26T03:32:37.486Z,2.84
2018-12-26T03:33:37.147Z,2.83
2018-12-26T03:34:37.149Z,2.84
2018-12-26T03:35:37.150Z,2.79
2018-12-26T03:36:37.148Z,2.77
2018-12-26T03:37:37.154Z,2.74
2018-12-26T03:38:37.150Z,2.71
2018-12-26T03:39:37.152Z,2.69
2018-12-26T03:40:37.152Z,2.71
2018-12-26T03:41:37.160Z,2.68
2018-12-26T03:42:37.154Z,2.69
2018-12-26T03:43:37.156Z,2.69
2018-12-26T03:44:37.164Z,2.62
2018-12-26T03:45:37.162Z,2.69
2018-12-26T03:46:37.150Z,2.74
2018-12-26T03:47:37.157Z,2.65
2018-12-26T03:48:37.153Z,2.61
2018-12-26T03:49:37.170Z,2.65
2018-12-26T03:50:37.160Z,2.71
2018-12-26T03:51:37.160Z,2.62
2018-12-26T03:52:37.160Z,2.63
2018-12-26T03:53:37.178Z,2.61
2018-12-26T03:54:37.161Z,2.62
2018-12-26T03:55:37.161Z,2.73
2018-12-26T03:56:37.164Z,2.69
2018-12-26T03:57:37.162Z,2.74
2018-12-26T03:58:37.166Z,2.65
2018-12-26T03:59:37.161Z,2.74
2018-12-26T04:00:37.160Z,2.69
2018-12-26T04:01:37.166Z,2.73
2018-12-26T04:02:37.177Z,2.65
2018-12-26T04:03:37.168Z,2.68
2018-12-26T04:04:37.167Z,2.69
2018-12-26T04:05:37.162Z,2.68
2018-12-26T04:06:37.168Z,2.63
2018-12-26T04:07:37.173Z,2.66
2018-12-26T04:08:37.178Z,2.71
2018-12-26T04:09:37.170Z,2.74
2018-12-26T04:10:37.172Z,2.76
2018-12-26T04:11:37.173Z,2.77
2018-12-26T04:12:37.167Z,2.74
2018-12-26T04:13:37.304Z,2.77
2018-12-26T04:14:37.173Z,2.73
2018-12-26T04:15:37.173Z,2.68
2018-12-26T04:16:37.183Z,2.71
2018-12-26T04:17:37.168Z,2.77
2018-12-26T04:18:37.175Z,2.81
2018-12-26T04:19:37.174Z,2.81
2018-12-26T04:20:37.175Z,2.81
2018-12-26T04:21:37.174Z,2.83
2018-12-26T04:22:37.170Z,2.80
2018-12-26T04:23:37.179Z,2.86
2018-12-26T04:24:37.180Z,2.77
2018-12-26T04:25:37.175Z,2.86
2018-12-26T04:26:37.175Z,2.81
2018-12-26T04:27:37.185Z,2.81
2018-12-26T04:28:37.179Z,2.76
2018-12-26T04:29:37.179Z,2.87
2018-12-26T04:30:37.180Z,2.86
2018-12-26T04:31:37.179Z,2.83
2018-12-26T04:32:37.184Z,2.83
2018-12-26T04:33:37.177Z,2.83
2018-12-26T04:34:37.182Z,2.79
2018-12-26T04:35:37.180Z,2.81
2018-12-26T04:36:37.184Z,2.73
2018-12-26T04:37:37.240Z,2.81
2018-12-26T04:38:37.186Z,2.79
2018-12-26T04:39:37.191Z,2.68
2018-12-26T04:40:37.188Z,2.79
2018-12-26T04:41:37.188Z,2.69
2018-12-26T04:42:37.185Z,2.79
2018-12-26T04:43:37.190Z,2.83
2018-12-26T04:44:37.192Z,2.86
2018-12-26T04:45:37.191Z,2.80
2018-12-26T04:46:37.193Z,2.79
2018-12-26T04:47:37.186Z,2.80
2018-12-26T04:48:37.191Z,2.77
2018-12-26T04:49:37.195Z,2.83
2018-12-26T04:50:37.188Z,2.71
2018-12-26T04:51:37.192Z,2.79
2018-12-26T04:52:37.187Z,2.81
2018-12-26T04:53:37.193Z,2.86
2018-12-26T04:54:37.195Z,2.83
2018-12-26T04:55:37.203Z,2.73
2018-12-26T04:56:37.194Z,2.84
2018-12-26T04:57:37.192Z,2.84
2018-12-26T04:58:37.196Z,2.80
2018-12-26T04:59:37.196Z,2.81
2018-12-26T05:00:37.197Z,2.89
2018-12-26T05:01:37.234Z,2.90
2018-12-26T05:02:37.200Z,3.01
2018-12-26T05:03:37.196Z,2.98
2018-12-26T05:04:37.198Z,2.84
2018-12-26T05:05:37.203Z,2.95
2018-12-26T05:06:37.202Z,2.95
2018-12-26T05:07:37.202Z,2.94
2018-12-26T05:08:37.204Z,2.90
2018-12-26T05:09:37.206Z,2.92
2018-12-26T05:10:37.205Z,2.95
2018-12-26T05:11:37.205Z,2.90
2018-12-26T05:12:37.206Z,3.01
2018-12-26T05:13:37.201Z,2.94
2018-12-26T05:14:37.206Z,2.87
2018-12-26T05:15:37.208Z,2.98
2018-12-26T05:16:37.209Z,2.98
2018-12-26T05:17:37.209Z,2.97
2018-12-26T05:18:37.226Z,2.98
2018-12-26T05:19:37.209Z,3.08
2018-12-26T05:20:37.210Z,2.94
2018-12-26T05:21:37.219Z,3.02
2018-12-26T05:22:37.207Z,3.04
2018-12-26T05:23:37.210Z,3.07
2018-12-26T05:24:37.211Z,3.05
2018-12-26T05:25:37.217Z,3.04
2018-12-26T05:26:37.222Z,3.07
2018-12-26T05:27:37.219Z,3.05
2018-12-26T05:28:37.213Z,3.10
2018-12-26T05:29:37.220Z,3.10
2018-12-26T05:30:37.242Z,3.02
2018-12-26T05:31:37.222Z,2.99
2018-12-26T05:32:37.219Z,2.98
2018-12-26T05:33:37.224Z,2.97
2018-12-26T05:34:37.223Z,2.97
2018-12-26T05:35:37.218Z,2.94
2018-12-26T05:36:37.222Z,2.97
2018-12-26T05:37:37.222Z,2.97
2018-12-26T05:38:37.228Z,2.95
2018-12-26T05:39:37.222Z,2.94
2018-12-26T05:40:37.221Z,3.01
2018-12-26T05:41:37.224Z,2.97
2018-12-26T05:42:37.228Z,3.08
2018-12-26T05:43:37.227Z,3.01
2018-12-26T05:44:37.225Z,3.04
2018-12-26T05:45:37.226Z,2.98
2018-12-26T05:46:37.226Z,2.95
2018-12-26T05:47:37.231Z,3.04
2018-12-26T05:48:37.227Z,2.92
2018-12-26T05:49:37.234Z,2.97
2018-12-26T05:50:37.239Z,3.01
2018-12-26T05:51:37.234Z,2.89
2018-12-26T05:52:37.234Z,2.90
2018-12-26T05:53:37.243Z,2.86
2018-12-26T05:54:37.239Z,2.84
2018-12-26T05:55:37.241Z,2.83
2018-12-26T05:56:37.239Z,2.83
2018-12-26T05:57:42.767Z,2.95
2018-12-26T05:58:37.241Z,2.87
2018-12-26T05:59:37.257Z,2.97
2018-12-26T06:00:37.231Z,2.98
2018-12-26T06:01:37.231Z,2.97
2018-12-26T06:02:37.234Z,2.98
2018-12-26T06:03:37.239Z,2.79
2018-12-26T06:04:37.244Z,2.84
2018-12-26T06:05:37.257Z,2.87
2018-12-26T06:06:37.259Z,2.79
2018-12-26T06:07:37.242Z,2.80
2018-12-26T06:08:37.244Z,2.84
2018-12-26T06:09:37.244Z,2.83
2018-12-26T06:10:37.250Z,2.87
2018-12-26T06:11:37.253Z,2.80
2018-12-26T06:12:37.250Z,2.86
2018-12-26T06:13:37.262Z,2.86
2018-12-26T06:14:37.266Z,2.90
2018-12-26T06:15:37.242Z,2.92
2018-12-26T06:16:37.238Z,2.90
2018-12-26T06:17:37.245Z,2.89
2018-12-26T06:18:37.248Z,2.80
2018-12-26T06:19:37.253Z,2.84
2018-12-26T06:20:37.255Z,2.77
2018-12-26T06:21:37.265Z,2.80
2018-12-26T06:22:37.266Z,2.83
2018-12-26T06:23:37.249Z,2.84
2018-12-26T06:24:37.258Z,2.94
2018-12-26T06:25:37.247Z,2.94
2018-12-26T06:26:37.250Z,2.89
2018-12-26T06:27:37.276Z,2.81
2018-12-26T06:28:37.259Z,2.83
2018-12-26T06:29:37.270Z,2.80
2018-12-26T06:30:37.253Z,2.83
2018-12-26T06:31:37.248Z,2.83
2018-12-26T06:32:37.253Z,2.92
2018-12-26T06:33:37.248Z,2.86
2018-12-26T06:34:37.258Z,2.81
2018-12-26T06:35:37.263Z,2.74
2018-12-26T06:36:37.263Z,2.81
2018-12-26T06:37:37.271Z,2.92
2018-12-26T06:38:37.260Z,2.92
2018-12-26T06:39:37.263Z,2.90
2018-12-26T06:40:37.263Z,2.92
2018-12-26T06:41:37.278Z,2.92
2018-12-26T06:42:37.279Z,2.90
2018-12-26T06:43:37.264Z,2.87
2018-12-26T06:44:37.344Z,2.87
2018-12-26T06:45:37.255Z,2.79
2018-12-26T06:46:37.260Z,2.90
2018-12-26T06:47:37.261Z,2.90
2018-12-26T06:48:37.260Z,2.94
2018-12-26T06:49:37.265Z,2.86
2018-12-26T06:50:37.272Z,2.94
2018-12-26T06:51:37.268Z,2.89
2018-12-26T06:52:37.271Z,2.90
2018-12-26T06:53:37.268Z,2.86
2018-12-26T06:54:37.271Z,2.92
2018-12-26T06:55:37.266Z,2.87
2018-12-26T06:56:37.271Z,2.90
2018-12-26T06:57:37.271Z,2.89
2018-12-26T06:58:37.272Z,2.92
2018-12-26T06:59:37.276Z,2.87
2018-12-26T07:00:37.269Z,2.90
2018-12-26T07:01:37.274Z,2.90
2018-12-26T07:02:37.277Z,2.89
2018-12-26T07:03:37.276Z,2.87
2018-12-26T07:04:37.278Z,2.94
2018-12-26T07:05:37.277Z,2.98
2018-12-26T07:06:37.273Z,2.98
2018-12-26T07:07:37.279Z,2.97
2018-12-26T07:08:37.282Z,2.95
2018-12-26T07:09:37.282Z,2.99
2018-12-26T07:10:37.276Z,2.98
2018-12-26T07:11:37.283Z,2.90
2018-12-26T07:12:37.283Z,2.87
2018-12-26T07:13:37.283Z,2.90
2018-12-26T07:14:37.283Z,2.97
2018-12-26T07:15:37.282Z,2.99
2018-12-26T07:16:37.283Z,2.98
2018-12-26T07:17:37.284Z,2.92
2018-12-26T07:18:37.286Z,2.89
2018-12-26T07:19:37.283Z,2.89
2018-12-26T07:20:37.286Z,2.95
2018-12-26T07:21:37.287Z,2.99
2018-12-26T07:22:37.289Z,3.08
2018-12-26T07:23:37.289Z,2.97
2018-12-26T07:24:37.291Z,3.05
2018-12-26T07:25:37.291Z,2.99
2018-12-26T07:26:37.287Z,3.01
2018-12-26T07:27:37.292Z,2.99
2018-12-26T07:28:37.292Z,2.98
2018-12-26T07:29:37.292Z,2.98
2018-12-26T07:30:37.292Z,2.94
2018-12-26T07:31:37.295Z,2.97
2018-12-26T07:32:37.297Z,2.97
2018-12-26T07:33:37.292Z,2.95
2018-12-26T07:34:42.113Z,2.92
2018-12-26T07:35:37.299Z,2.94
2018-12-26T07:36:37.295Z,2.99
2018-12-26T07:37:37.295Z,2.97
2018-12-26T07:38:37.298Z,2.97
2018-12-26T07:39:37.299Z,2.98
2018-12-26T07:40:37.294Z,2.89
2018-12-26T07:41:37.299Z,2.99
2018-12-26T07:42:37.297Z,2.95
2018-12-26T07:43:37.302Z,2.95
2018-12-26T07:44:37.302Z,2.99
2018-12-26T07:45:37.305Z,2.97
2018-12-26T07:46:37.298Z,2.95
2018-12-26T07:47:37.303Z,3.01
2018-12-26T07:48:37.309Z,2.99
2018-12-26T07:49:37.307Z,2.92
2018-12-26T07:50:37.305Z,2.90
2018-12-26T07:51:37.310Z,2.95
2018-12-26T07:52:37.305Z,2.99
2018-12-26T07:53:37.306Z,2.95
2018-12-26T07:54:37.315Z,2.94
2018-12-26T07:55:37.311Z,2.94
2018-12-26T07:56:37.328Z,2.89
2018-12-26T07:57:37.313Z,2.89
2018-12-26T07:58:37.309Z,2.89
2018-12-26T07:59:37.671Z,2.80
2018-12-26T08:00:37.312Z,2.83
2018-12-26T08:01:37.313Z,2.83
2018-12-26T08:02:37.311Z,2.83
2018-12-26T08:03:37.331Z,2.95
2018-12-26T08:04:37.308Z,2.81
2018-12-26T08:05:37.311Z,2.76
2018-12-26T08:06:37.321Z,2.81
2018-12-26T08:07:37.315Z,2.87
2018-12-26T08:08:37.317Z,2.83
2018-12-26T08:09:37.318Z,2.86
2018-12-26T08:10:37.312Z,2.77
2018-12-26T08:11:37.320Z,2.83
2018-12-26T08:12:37.315Z,2.90
2018-12-26T08:13:37.323Z,2.83
2018-12-26T08:14:37.315Z,2.83
2018-12-26T08:15:37.326Z,2.77
2018-12-26T08:16:37.318Z,2.90
2018-12-26T08:17:37.317Z,2.89
2018-12-26T08:18:37.315Z,2.99
2018-12-26T08:19:37.318Z,2.92
2018-12-26T08:20:37.316Z,2.95
2018-12-26T08:21:37.318Z,2.94
2018-12-26T08:22:37.321Z,2.90
2018-12-26T08:23:37.355Z,2.87
2018-12-26T08:24:37.321Z,2.95
2018-12-26T08:25:37.319Z,2.89
2018-12-26T08:26:37.314Z,2.92
2018-12-26T08:27:37.321Z,2.87
2018-12-26T08:28:37.324Z,2.99
2018-12-26T08:29:37.323Z,2.92
2018-12-26T08:30:37.324Z,2.95
2018-12-26T08:31:37.330Z,2.90
2018-12-26T08:32:37.320Z,2.94
2018-12-26T08:33:37.325Z,2.94
2018-12-26T08:34:37.599Z,2.97
2018-12-26T08:35:37.325Z,2.99
2018-12-26T08:36:37.330Z,3.05
2018-12-26T08:37:37.323Z,2.99
2018-12-26T08:38:37.325Z,2.98
2018-12-26T08:39:37.334Z,3.07
2018-12-26T08:40:37.326Z,3.04
2018-12-26T08:41:37.326Z,3.07
2018-12-26T08:42:37.326Z,2.99
2018-12-26T08:43:37.330Z,3.07
2018-12-26T08:44:37.328Z,3.01
2018-12-26T08:45:37.324Z,3.04
2018-12-26T08:46:37.330Z,3.07
2018-12-26T08:47:37.331Z,2.99
2018-12-26T08:48:37.330Z,3.07
2018-12-26T08:49:37.326Z,3.12
2018-12-26T08:50:37.328Z,3.04
2018-12-26T08:51:37.331Z,3.22
2018-12-26T08:52:37.339Z,3.16
2018-12-26T08:53:37.337Z,3.13
2018-12-26T08:54:37.432Z,3.17
2018-12-26T08:55:37.334Z,3.13
2018-12-26T08:56:37.340Z,3.20
2018-12-26T08:57:37.333Z,3.17
2018-12-26T08:58:37.331Z,3.19
2018-12-26T08:59:37.343Z,3.16
2018-12-26T09:00:37.346Z,3.16
2018-12-26T09:01:37.339Z,3.23
2018-12-26T09:02:37.420Z,3.17
2018-12-26T09:03:37.348Z,3.13
2018-12-26T09:04:37.345Z,3.23
2018-12-26T09:05:37.340Z,3.22
2018-12-26T09:06:37.341Z,3.30
2018-12-26T09:07:37.335Z,3.23
2018-12-26T09:08:37.346Z,3.26
2018-12-26T09:09:37.342Z,3.28
2018-12-26T09:10:37.342Z,3.34
2018-12-26T09:11:37.350Z,3.44
2018-12-26T09:12:37.348Z,3.35
2018-12-26T09:13:37.349Z,3.33
2018-12-26T09:14:37.405Z,3.41
2018-12-26T09:15:37.349Z,3.30
2018-12-26T09:16:37.348Z,3.28
2018-12-26T09:17:37.353Z,3.30
2018-12-26T09:18:37.351Z,3.34
2018-12-26T09:19:37.343Z,3.39
2018-12-26T09:20:37.347Z,3.37
2018-12-26T09:21:37.354Z,3.33
2018-12-26T09:22:37.352Z,3.34
2018-12-26T09:23:37.349Z,3.30
2018-12-26T09:24:37.351Z,3.31
2018-12-26T09:25:37.347Z,3.33
2018-12-26T09:26:37.353Z,3.33
2018-12-26T09:27:37.353Z,3.45
2018-12-26T09:28:43.807Z,3.45
2018-12-26T09:29:37.353Z,3.45
2018-12-26T09:30:37.458Z,3.39
2018-12-26T09:31:37.354Z,3.37
2018-12-26T09:32:37.356Z,3.42
2018-12-26T09:33:37.359Z,3.45
2018-12-26T09:34:37.363Z,3.34
2018-12-26T09:35:37.358Z,3.31
2018-12-26T09:36:37.357Z,3.41
2018-12-26T09:37:37.405Z,3.35
2018-12-26T09:38:37.361Z,3.41
2018-12-26T09:39:37.360Z,3.37
2018-12-26T09:40:37.370Z,3.39
2018-12-26T09:41:37.366Z,3.45
2018-12-26T09:42:37.377Z,3.44
2018-12-26T09:43:37.370Z,3.49
2018-12-26T09:44:37.368Z,3.44
2018-12-26T09:45:37.375Z,3.50
2018-12-26T09:46:37.368Z,3.39
2018-12-26T09:47:37.368Z,3.37
2018-12-26T09:48:38.639Z,3.41
2018-12-26T09:49:37.371Z,3.45
2018-12-26T09:50:37.370Z,3.35
2018-12-26T09:51:37.372Z,3.44
2018-12-26T09:52:37.371Z,3.46
2018-12-26T09:53:37.370Z,3.53
2018-12-26T09:54:37.375Z,3.46
2018-12-26T09:55:37.375Z,3.45
2018-12-26T09:56:37.379Z,3.42
2018-12-26T09:57:37.388Z,3.50
2018-12-26T09:58:37.378Z,3.44
2018-12-26T09:59:37.381Z,3.53
2018-12-26T10:00:37.375Z,3.50
2018-12-26T10:01:37.378Z,3.56
2018-12-26T10:02:37.383Z,3.49
2018-12-26T10:03:37.384Z,3.44
2018-12-26T10:04:37.392Z,3.50
2018-12-26T10:05:37.387Z,3.44
2018-12-26T10:06:37.394Z,3.53
2018-12-26T10:07:37.390Z,3.50
2018-12-26T10:08:37.384Z,3.56
2018-12-26T10:09:37.383Z,3.56
2018-12-26T10:10:37.388Z,3.62
2018-12-26T10:11:37.388Z,3.62
2018-12-26T10:12:37.395Z,3.59
2018-12-26T10:13:37.394Z,3.52
2018-12-26T10:14:37.398Z,3.56
2018-12-26T10:15:37.392Z,3.45
2018-12-26T10:16:37.402Z,3.50
2018-12-26T10:17:37.391Z,3.49
2018-12-26T10:18:37.404Z,3.56
2018-12-26T10:19:37.395Z,3.54
2018-12-26T10:20:37.400Z,3.52
2018-12-26T10:21:37.401Z,3.45
2018-12-26T10:22:37.399Z,3.50
2018-12-26T10:23:37.397Z,3.50
2018-12-26T10:24:37.397Z,3.49
2018-12-26T10:25:37.400Z,3.57
2018-12-26T10:26:37.403Z,3.53
2018-12-26T10:27:37.404Z,3.57
2018-12-26T10:28:37.404Z,3.53
2018-12-26T10:29:37.405Z,3.53
2018-12-26T10:30:37.403Z,3.56
2018-12-26T10:31:37.406Z,3.57
2018-12-26T10:32:37.408Z,3.49
2018-12-26T10:33:37.409Z,3.49
2018-12-26T10:34:37.409Z,3.54
2018-12-26T10:35:37.412Z,3.50
2018-12-26T10:36:37.412Z,3.52
2018-12-26T10:37:37.412Z,3.50
2018-12-26T10:38:37.410Z,3.52
2018-12-26T10:39:37.422Z,3.53
2018-12-26T10:40:37.408Z,3.56
2018-12-26T10:41:37.479Z,3.56
2018-12-26T10:42:37.418Z,3.53
2018-12-26T10:43:37.516Z,3.53
2018-12-26T10:44:37.423Z,3.64
2018-12-26T10:45:37.418Z,3.62
2018-12-26T10:46:37.426Z,3.60
2018-12-26T10:47:37.421Z,3.60
2018-12-26T10:48:37.427Z,3.63
2018-12-26T10:49:37.425Z,3.64
2018-12-26T10:50:37.424Z,3.59
2018-12-26T10:51:37.427Z,3.60
2018-12-26T10:52:37.428Z,3.67
2018-12-26T10:53:37.429Z,3.60
2018-12-26T10:54:38.460Z,3.67
2018-12-26T10:55:37.427Z,3.64
2018-12-26T10:56:37.430Z,3.60
2018-12-26T10:57:37.426Z,3.62
2018-12-26T10:58:37.432Z,3.60
2018-12-26T10:59:37.433Z,3.60
2018-12-26T11:00:37.437Z,3.77
2018-12-26T11:01:37.432Z,3.64
2018-12-26T11:02:37.436Z,3.62
2018-12-26T11:03:37.440Z,3.67
2018-12-26T11:04:37.438Z,3.68
2018-12-26T11:05:37.438Z,3.68
2018-12-26T11:06:37.438Z,3.68
2018-12-26T11:07:37.447Z,3.68
2018-12-26T11:08:37.445Z,3.68
2018-12-26T11:09:37.442Z,3.70
2018-12-26T11:10:37.445Z,3.77
2018-12-26T11:11:37.447Z,3.72
2018-12-26T11:12:37.441Z,3.68
2018-12-26T11:13:37.436Z,3.72
2018-12-26T11:14:37.448Z,3.68
2018-12-26T11:15:37.440Z,3.74
2018-12-26T11:16:37.451Z,3.71
2018-12-26T11:17:37.451Z,3.86
2018-12-26T11:18:37.460Z,3.78
2018-12-26T11:19:37.452Z,3.81
2018-12-26T11:20:37.449Z,3.78
2018-12-26T11:21:37.464Z,3.78
2018-12-26T11:22:37.460Z,3.82
2018-12-26T11:23:37.464Z,3.82
2018-12-26T11:24:37.460Z,3.81
2018-12-26T11:25:37.469Z,3.82
2018-12-26T11:26:37.460Z,3.82
2018-12-26T11:27:37.461Z,3.78
2018-12-26T11:28:37.464Z,3.80
2018-12-26T11:29:37.466Z,3.77
2018-12-26T11:30:37.465Z,3.71
2018-12-26T11:31:37.464Z,3.72
2018-12-26T11:32:37.469Z,3.71
2018-12-26T11:33:37.466Z,3.81
2018-12-26T11:34:37.472Z,3.82
2018-12-26T11:35:37.472Z,3.88
2018-12-26T11:36:37.466Z,3.88
2018-12-26T11:37:37.470Z,3.86
2018-12-26T11:38:37.511Z,3.80
2018-12-26T11:39:37.474Z,3.84
2018-12-26T11:40:37.466Z,3.89
2018-12-26T11:41:37.488Z,3.81
2018-12-26T11:42:37.471Z,3.84
2018-12-26T11:43:37.476Z,3.84
2018-12-26T11:44:37.482Z,3.80
2018-12-26T11:45:37.471Z,3.84
2018-12-26T11:46:37.477Z,3.84
2018-12-26T11:47:37.479Z,3.86
2018-12-26T11:48:37.479Z,3.86
2018-12-26T11:49:37.482Z,3.81
2018-12-26T11:50:37.476Z,3.84
2018-12-26T11:51:37.480Z,3.81
2018-12-26T11:53:37.489Z,3.80
2018-12-26T11:54:37.493Z,3.81
2018-12-26T11:55:37.484Z,3.86
2018-12-26T11:56:37.496Z,3.88
2018-12-26T11:57:37.490Z,3.82
2018-12-26T11:58:37.642Z,3.82
2018-12-26T11:59:37.491Z,3.82
2018-12-26T12:00:37.491Z,3.82
2018-12-26T12:01:37.506Z,3.89
2018-12-26T12:02:37.484Z,3.93
2018-12-26T12:03:37.493Z,3.92
2018-12-26T12:04:37.495Z,3.93
2018-12-26T12:05:37.500Z,3.96
2018-12-26T12:06:37.500Z,3.96
2018-12-26T12:07:37.492Z,3.99
2018-12-26T12:08:37.498Z,4.02
2018-12-26T12:09:37.498Z,3.96
2018-12-26T12:10:37.500Z,3.99
2018-12-26T12:11:37.511Z,3.98
2018-12-26T12:12:37.500Z,3.92
2018-12-26T12:13:37.530Z,3.98
2018-12-26T12:14:37.505Z,3.89
2018-12-26T12:15:37.510Z,3.98
2018-12-26T12:16:37.513Z,3.89
2018-12-26T12:17:37.513Z,3.96
2018-12-26T12:18:37.514Z,3.99
2018-12-26T12:19:37.519Z,3.93
2018-12-26T12:20:37.512Z,3.86
2018-12-26T12:21:37.514Z,3.93
2018-12-26T12:22:37.521Z,3.88
2018-12-26T12:24:37.509Z,3.99
2018-12-26T12:25:37.511Z,3.93
2018-12-26T12:27:37.522Z,3.93
2018-12-26T12:28:37.529Z,4.04
2018-12-26T12:29:37.532Z,4.00
2018-12-26T12:30:37.530Z,3.98
2018-12-26T12:31:37.524Z,3.99
2018-12-26T12:32:37.517Z,3.99
2018-12-26T12:33:37.531Z,4.07
2018-12-26T12:34:37.527Z,3.98
2018-12-26T12:35:37.531Z,4.00
2018-12-26T12:36:37.645Z,3.98
2018-12-26T12:37:37.534Z,4.02
2018-12-26T12:38:37.533Z,4.10
2018-12-26T12:39:37.542Z,4.08
2018-12-26T12:40:37.533Z,4.00
2018-12-26T12:41:37.547Z,4.07
2018-12-26T12:42:37.537Z,4.14
2018-12-26T12:43:37.537Z,4.11
2018-12-26T12:44:37.598Z,4.13
2018-12-26T12:45:37.537Z,4.14
2018-12-26T12:46:37.563Z,4.14
2018-12-26T12:47:37.550Z,4.08
2018-12-26T12:48:37.536Z,4.11
2018-12-26T12:49:37.543Z,4.08
2018-12-26T12:50:37.555Z,4.08
2018-12-26T12:51:37.550Z,4.06
2018-12-26T12:52:37.550Z,4.10
2018-12-26T12:53:37.550Z,4.10
2018-12-26T12:54:37.551Z,4.06
2018-12-26T12:55:37.552Z,4.07
2018-12-26T12:56:37.551Z,4.10
2018-12-26T12:57:37.556Z,4.14
2018-12-26T12:58:37.564Z,4.26
2018-12-26T12:59:44.831Z,4.17
2018-12-26T13:00:37.550Z,4.24
2018-12-26T13:01:37.562Z,4.18
2018-12-26T13:02:37.567Z,4.20
2018-12-26T13:03:37.561Z,4.18
2018-12-26T13:04:37.561Z,4.17
2018-12-26T13:05:37.566Z,4.11
2018-12-26T13:06:37.570Z,4.17
2018-12-26T13:07:37.567Z,4.16
2018-12-26T13:08:37.567Z,4.17
2018-12-26T13:09:37.566Z,4.16
2018-12-26T13:10:37.580Z,4.11
2018-12-26T13:11:37.568Z,4.18
2018-12-26T13:12:37.578Z,4.31
2018-12-26T13:13:37.573Z,4.20
2018-12-26T13:14:37.577Z,4.14
2018-12-26T13:15:37.576Z,4.10
2018-12-26T13:16:37.591Z,4.16
2018-12-26T13:17:37.578Z,4.16
2018-12-26T13:18:37.601Z,4.11
2018-12-26T13:19:37.580Z,4.13
2018-12-26T13:20:37.590Z,4.14
2018-12-26T13:21:37.581Z,4.14